createdAt,value
2022-08-28T00:02:59.843Z,12.52
2022-08-28T00:06:02.311Z,12.60
2022-08-28T00:09:05.038Z,10.48
2022-08-28T00:12:07.698Z,9.45
2022-08-28T00:15:14.210Z,9.10
2022-08-28T00:18:16.385Z,10.75
2022-08-28T00:21:18.505Z,7.97
2022-08-28T00:24:20.380Z,8.65
2022-08-28T00:27:40.673Z,8.82
2022-08-28T00:33:47.553Z,12.73
2022-08-28T00:36:49.850Z,10.07
2022-08-28T00:39:51.928Z,11.70
2022-08-28T00:42:54.772Z,8.80
2022-08-28T00:45:56.344Z,8.70
2022-08-28T00:48:57.979Z,11.13
2022-08-28T00:52:08.020Z,9.55
2022-08-28T00:55:13.909Z,11.40
2022-08-28T00:58:16.060Z,7.97
2022-08-28T01:01:18.955Z,9.50
2022-08-28T01:04:22.426Z,9.23
2022-08-28T01:07:24.008Z,10.07
2022-08-28T01:10:29.481Z,8.45
2022-08-28T01:13:32.421Z,9.85
2022-08-28T01:16:35.037Z,9.25
2022-08-28T01:20:04.994Z,7.18
2022-08-28T01:23:34.432Z,9.75
2022-08-28T01:26:38.315Z,9.20
2022-08-28T01:29:39.912Z,8.98
2022-08-28T01:32:45.372Z,10.63
2022-08-28T01:35:48.011Z,9.35
2022-08-28T01:38:55.933Z,11.07
2022-08-28T01:41:59.523Z,12.45
2022-08-28T01:45:01.044Z,14.45
2022-08-28T01:48:02.607Z,7.85
2022-08-28T01:51:05.337Z,12.65
2022-08-28T01:54:08.137Z,10.07
2022-08-28T01:57:11.389Z,12.23
2022-08-28T02:00:14.910Z,12.93
2022-08-28T02:03:16.695Z,10.63
2022-08-28T02:06:19.132Z,12.65
2022-08-28T02:09:20.703Z,9.48
2022-08-28T02:12:22.217Z,10.77
2022-08-28T02:15:25.493Z,10.18
2022-08-28T02:18:27.360Z,8.45
2022-08-28T02:21:29.200Z,11.65
2022-08-28T02:24:30.804Z,10.75
2022-08-28T02:27:32.467Z,13.80
2022-08-28T02:30:34.565Z,12.65
2022-08-28T02:33:38.414Z,11.38
2022-08-28T02:36:41.954Z,10.93
2022-08-28T02:39:44.374Z,12.25
2022-08-28T02:42:46.276Z,12.98
2022-08-28T02:45:48.237Z,10.25
2022-08-28T02:48:50.312Z,10.23
2022-08-28T02:51:52.148Z,10.50
2022-08-28T02:54:54.860Z,12.43
2022-08-28T02:57:56.422Z,13.93
2022-08-28T03:01:00.365Z,11.02
2022-08-28T03:04:05.390Z,8.45
2022-08-28T03:07:09.184Z,9.55
2022-08-28T03:10:13.341Z,11.05
2022-08-28T03:13:26.823Z,7.75
2022-08-28T03:16:30.231Z,10.77
2022-08-28T03:19:32.577Z,8.55
2022-08-28T03:22:52.658Z,11.20
2022-08-28T03:26:01.208Z,13.48
2022-08-28T03:29:03.060Z,10.93
2022-08-28T03:32:04.709Z,12.45
2022-08-28T03:35:06.823Z,9.88
2022-08-28T03:38:08.405Z,11.52
2022-08-28T03:41:16.444Z,10.00
2022-08-28T03:44:18.012Z,12.20
2022-08-28T03:47:19.531Z,13.23
2022-08-28T03:50:23.231Z,10.10
2022-08-28T03:53:29.049Z,11.85
2022-08-28T03:56:31.155Z,10.70
2022-08-28T03:59:33.699Z,11.60
2022-08-28T04:02:35.547Z,10.43
2022-08-28T04:05:37.676Z,14.07
2022-08-28T04:08:39.355Z,9.60
2022-08-28T04:11:44.242Z,6.70
2022-08-28T04:14:45.763Z,13.88
2022-08-28T04:17:47.309Z,11.00
2022-08-28T04:21:02.273Z,8.73
2022-08-28T04:24:07.808Z,11.43
2022-08-28T04:27:10.963Z,10.30
2022-08-28T04:30:13.547Z,9.85
2022-08-28T04:33:15.080Z,12.38
2022-08-28T04:36:18.086Z,8.57
2022-08-28T04:39:19.983Z,9.23
2022-08-28T04:42:21.945Z,9.18
2022-08-28T04:45:23.623Z,10.23
2022-08-28T04:48:25.470Z,8.65
2022-08-28T04:51:27.999Z,8.35
2022-08-28T04:54:29.563Z,8.50
2022-08-28T04:57:34.526Z,8.50
2022-08-28T05:00:42.944Z,9.52
2022-08-28T05:03:45.883Z,8.00
2022-08-28T05:06:47.868Z,11.50
2022-08-28T05:09:53.848Z,9.38
2022-08-28T05:12:55.370Z,9.77
2022-08-28T05:15:56.922Z,12.82
2022-08-28T05:19:00.664Z,11.43
2022-08-28T05:22:02.244Z,9.30
2022-08-28T05:25:04.126Z,7.07
2022-08-28T05:28:11.341Z,9.13
2022-08-28T05:31:17.919Z,9.02
2022-08-28T05:34:20.270Z,12.88
2022-08-28T05:37:21.852Z,12.77
2022-08-28T05:40:23.616Z,11.25
2022-08-28T05:43:25.690Z,10.13
2022-08-28T05:46:30.679Z,13.25
2022-08-28T05:49:32.283Z,11.48
2022-08-28T05:52:34.943Z,9.30
2022-08-28T05:55:40.418Z,9.88
2022-08-28T05:58:42.451Z,11.93
2022-08-28T06:01:46.706Z,10.05
2022-08-28T06:04:51.378Z,10.55
2022-08-28T06:07:52.904Z,9.25
2022-08-28T06:10:54.536Z,17.95
2022-08-28T06:13:56.136Z,8.73
2022-08-28T06:17:00.048Z,10.85
2022-08-28T06:20:02.236Z,9.75
2022-08-28T06:23:03.874Z,11.98
2022-08-28T06:26:07.115Z,8.45
2022-08-28T06:29:11.833Z,12.75
2022-08-28T06:32:13.513Z,11.35
2022-08-28T06:35:15.143Z,10.32
2022-08-28T06:38:18.165Z,11.10
2022-08-28T06:41:19.755Z,9.93
2022-08-28T06:44:22.059Z,9.90
2022-08-28T06:47:23.588Z,9.45
2022-08-28T06:50:25.118Z,8.88
2022-08-28T06:53:29.295Z,13.00
2022-08-28T06:56:31.426Z,10.13
2022-08-28T06:59:33.113Z,11.05
2022-08-28T07:02:34.728Z,7.82
2022-08-28T07:05:36.317Z,10.75
2022-08-28T07:08:38.985Z,9.95
2022-08-28T07:11:43.419Z,7.78
2022-08-28T07:14:45.555Z,8.32
2022-08-28T07:17:47.177Z,12.05
2022-08-28T07:20:57.327Z,10.48
2022-08-28T07:23:58.988Z,12.63
2022-08-28T07:27:00.531Z,7.80
2022-08-28T07:30:02.139Z,9.88
2022-08-28T07:33:03.801Z,7.80
2022-08-28T07:36:07.806Z,12.27
2022-08-28T07:39:11.343Z,9.73
2022-08-28T07:42:35.554Z,7.60
2022-08-28T07:45:37.443Z,10.40
2022-08-28T07:48:41.090Z,7.55
2022-08-28T07:51:42.687Z,10.52
2022-08-28T07:54:44.235Z,6.82
2022-08-28T07:57:46.703Z,8.52
2022-08-28T08:00:48.303Z,7.13
2022-08-28T08:03:50.218Z,13.27
2022-08-28T08:06:58.318Z,12.32
2022-08-28T08:09:59.932Z,12.15
2022-08-28T08:13:01.533Z,8.82
2022-08-28T08:16:03.232Z,9.68
2022-08-28T08:19:04.999Z,11.18
2022-08-28T08:22:07.146Z,8.07
2022-08-28T08:25:09.156Z,10.98
2022-08-28T08:28:10.680Z,9.38
2022-08-28T08:31:17.663Z,8.48
2022-08-28T08:34:19.454Z,11.48
2022-08-28T08:37:21.744Z,5.60
2022-08-28T08:40:23.563Z,8.32
2022-08-28T08:43:27.266Z,12.48
2022-08-28T08:46:59.560Z,8.77
2022-08-28T08:50:17.382Z,10.65
2022-08-28T08:53:46.101Z,9.43
2022-08-28T08:56:48.876Z,8.90
2022-08-28T08:59:50.757Z,9.15
2022-08-28T09:03:13.173Z,7.45
2022-08-28T09:06:51.977Z,6.18
2022-08-28T09:09:55.852Z,7.22
2022-08-28T09:13:05.001Z,6.00
2022-08-28T09:16:20.649Z,9.25
2022-08-28T09:19:23.089Z,6.72
2022-08-28T09:22:24.642Z,8.73
2022-08-28T09:25:44.307Z,7.75
2022-08-28T09:29:00.074Z,7.95
2022-08-28T09:32:27.623Z,8.25
2022-08-28T09:35:35.147Z,5.40
2022-08-28T09:38:38.988Z,11.27
2022-08-28T09:42:10.799Z,9.07
2022-08-28T09:45:13.485Z,12.95
2022-08-28T09:48:35.638Z,11.88
2022-08-28T09:51:39.277Z,13.82
2022-08-28T09:54:43.515Z,10.63
2022-08-28T09:57:47.097Z,15.57
2022-08-28T10:01:06.847Z,12.13
2022-08-28T10:04:17.955Z,15.90
2022-08-28T10:07:38.535Z,12.57
2022-08-28T10:14:00.804Z,19.48
2022-08-28T10:17:36.943Z,22.33
2022-08-28T10:21:03.308Z,23.70
2022-08-28T10:24:28.978Z,23.02
2022-08-28T10:28:06.309Z,19.05
2022-08-28T10:31:23.629Z,12.80
2022-08-28T10:34:27.954Z,15.43
2022-08-28T10:37:42.734Z,13.52
2022-08-28T10:41:09.577Z,15.30
2022-08-28T10:44:25.599Z,13.65
2022-08-28T10:47:29.385Z,8.35
2022-08-28T10:50:47.614Z,10.00
2022-08-28T10:53:54.762Z,9.15
2022-08-28T10:57:17.525Z,12.82
2022-08-28T11:00:22.942Z,15.43
2022-08-28T11:03:35.435Z,9.00
2022-08-28T11:06:40.700Z,8.55
2022-08-28T11:09:47.709Z,11.52
2022-08-28T11:12:52.103Z,9.15
2022-08-28T11:15:53.851Z,10.98
2022-08-28T11:19:26.707Z,12.32
2022-08-28T11:22:40.512Z,9.45
2022-08-28T11:25:50.466Z,11.38
2022-08-28T11:28:52.124Z,12.20
2022-08-28T11:32:31.744Z,11.25
2022-08-28T11:35:47.038Z,11.97
2022-08-28T11:38:51.530Z,9.98
2022-08-28T11:42:33.997Z,12.25
2022-08-28T11:45:59.214Z,8.30
2022-08-28T11:49:02.874Z,12.55
2022-08-28T11:52:38.208Z,12.77
2022-08-28T11:56:07.703Z,12.32
2022-08-28T11:59:09.953Z,7.77
2022-08-28T12:02:39.648Z,9.35
2022-08-28T12:05:45.371Z,9.85
2022-08-28T12:08:52.954Z,6.28
2022-08-28T12:12:00.147Z,7.38
2022-08-28T12:15:08.032Z,5.97
2022-08-28T12:18:12.501Z,7.90
2022-08-28T12:21:21.410Z,8.65
2022-08-28T12:24:24.372Z,8.02
2022-08-28T12:27:26.815Z,15.55
2022-08-28T12:30:33.183Z,5.55
2022-08-28T12:33:56.877Z,9.27
2022-08-28T12:37:01.334Z,10.80
2022-08-28T12:40:41.303Z,12.82
2022-08-28T12:43:48.372Z,7.18
2022-08-28T12:46:50.040Z,7.15
2022-08-28T12:49:51.593Z,7.65
2022-08-28T12:53:00.254Z,6.13
2022-08-28T12:56:02.117Z,7.05
2022-08-28T12:59:37.776Z,8.85
2022-08-28T13:02:41.232Z,5.43
2022-08-28T13:05:42.934Z,10.20
2022-08-28T13:08:48.130Z,9.75
2022-08-28T13:11:51.505Z,8.80
2022-08-28T13:14:53.232Z,9.40
2022-08-28T13:17:54.880Z,7.18
2022-08-28T13:21:34.464Z,8.32
2022-08-28T13:24:45.995Z,11.45
2022-08-28T13:27:56.481Z,5.22
2022-08-28T13:30:58.943Z,6.68
2022-08-28T13:34:05.014Z,9.27
2022-08-28T13:37:14.843Z,5.53
2022-08-28T13:40:56.955Z,7.75
2022-08-28T13:43:53.476Z,5.13
2022-08-28T13:46:56.204Z,7.20
2022-08-28T13:49:57.743Z,8.32
2022-08-28T13:52:59.280Z,6.70
2022-08-28T13:56:01.312Z,6.95
2022-08-28T13:59:02.905Z,6.13
2022-08-28T14:02:26.459Z,10.30
2022-08-28T14:05:29.110Z,19.33
2022-08-28T14:08:31.066Z,6.93
2022-08-28T14:11:33.229Z,5.28
2022-08-28T14:14:36.062Z,6.82
2022-08-28T14:17:37.652Z,4.57
2022-08-28T14:20:39.544Z,4.85
2022-08-28T14:23:41.165Z,5.55
2022-08-28T14:26:42.765Z,5.57
2022-08-28T14:29:45.222Z,7.18
2022-08-28T14:32:46.793Z,6.05
2022-08-28T14:35:49.034Z,5.30
2022-08-28T14:38:54.028Z,6.25
2022-08-28T14:41:56.076Z,8.00
2022-08-28T14:44:57.699Z,6.38
2022-08-28T14:47:59.520Z,5.88
2022-08-28T14:51:02.060Z,6.47
2022-08-28T14:54:04.080Z,9.23
2022-08-28T14:57:05.963Z,6.95
2022-08-28T15:00:09.144Z,6.55
2022-08-28T15:06:20.183Z,6.10
2022-08-28T15:09:21.735Z,5.30
2022-08-28T15:12:23.671Z,6.30
2022-08-28T15:15:25.230Z,9.85
2022-08-28T15:18:26.781Z,4.32
2022-08-28T15:21:34.171Z,7.38
2022-08-28T15:24:36.254Z,6.03
2022-08-28T15:27:38.018Z,7.95
2022-08-28T15:30:39.709Z,8.23
2022-08-28T15:33:45.343Z,5.50
2022-08-28T15:36:55.257Z,7.00
2022-08-28T15:40:16.429Z,7.53
2022-08-28T15:46:19.903Z,5.50
2022-08-28T15:49:23.756Z,8.40
2022-08-28T15:52:25.723Z,6.05
2022-08-28T15:55:27.808Z,7.00
2022-08-28T15:58:31.310Z,8.00
2022-08-28T16:01:32.839Z,4.18
2022-08-28T16:04:34.409Z,7.18
2022-08-28T16:07:36.080Z,7.57
2022-08-28T16:10:38.318Z,8.27
2022-08-28T16:13:40.794Z,6.95
2022-08-28T16:16:46.380Z,6.35
2022-08-28T16:19:50.762Z,7.88
2022-08-28T16:22:52.930Z,5.15
2022-08-28T16:25:55.224Z,3.85
2022-08-28T16:28:56.913Z,5.65
2022-08-28T16:31:58.818Z,5.60
2022-08-28T16:35:03.470Z,7.68
2022-08-28T16:38:05.175Z,5.35
2022-08-28T16:41:12.706Z,6.03
2022-08-28T16:44:14.262Z,7.13
2022-08-28T16:47:16.041Z,7.93
2022-08-28T16:50:19.360Z,5.80
2022-08-28T16:53:27.130Z,6.15
2022-08-28T16:56:28.989Z,4.82
2022-08-28T16:59:30.844Z,4.40
2022-08-28T17:02:33.703Z,6.35
2022-08-28T17:05:36.735Z,5.38
2022-08-28T17:08:40.227Z,5.03
2022-08-28T17:11:42.023Z,5.57
2022-08-28T17:14:44.444Z,6.18
2022-08-28T17:17:46.795Z,5.57
2022-08-28T17:21:07.034Z,8.35
2022-08-28T17:24:12.449Z,5.97
2022-08-28T17:27:16.632Z,9.90
2022-08-28T17:30:24.530Z,9.82
2022-08-28T17:33:26.375Z,7.32
2022-08-28T17:36:33.903Z,9.70
2022-08-28T17:39:35.972Z,7.22
2022-08-28T17:42:37.638Z,10.77
2022-08-28T17:45:39.620Z,9.35
2022-08-28T17:48:41.432Z,9.77
2022-08-28T17:51:51.111Z,8.52
2022-08-28T17:54:52.673Z,10.55
2022-08-28T17:57:54.971Z,10.13
2022-08-28T18:00:57.686Z,8.43
2022-08-28T18:03:59.225Z,9.07
2022-08-28T18:07:01.768Z,7.38
2022-08-28T18:10:05.741Z,7.95
2022-08-28T18:13:07.351Z,6.20
2022-08-28T18:16:09.109Z,6.55
2022-08-28T18:19:11.887Z,6.70
2022-08-28T18:22:13.604Z,7.07
2022-08-28T18:25:35.009Z,9.40
2022-08-28T18:28:36.964Z,5.72
2022-08-28T18:31:38.616Z,7.57
2022-08-28T18:34:40.296Z,4.75
2022-08-28T18:37:42.153Z,9.82
2022-08-28T18:40:44.953Z,7.45
2022-08-28T18:43:47.225Z,7.25
2022-08-28T18:46:48.910Z,7.70
2022-08-28T18:49:50.470Z,9.13
2022-08-28T18:52:53.182Z,7.43
2022-08-28T18:55:55.139Z,5.97
2022-08-28T18:58:56.741Z,10.18
2022-08-28T19:01:58.844Z,6.47
2022-08-28T19:05:00.493Z,7.57
2022-08-28T19:08:02.114Z,4.38
2022-08-28T19:11:12.327Z,5.28
2022-08-28T19:14:13.864Z,6.60
2022-08-28T19:17:19.093Z,6.00
2022-08-28T19:20:23.170Z,4.10
2022-08-28T19:23:24.714Z,6.38
2022-08-28T19:26:27.402Z,6.82
2022-08-28T19:29:29.423Z,6.50
2022-08-28T19:32:31.430Z,4.00
2022-08-28T19:35:33.809Z,6.75
2022-08-28T19:38:35.461Z,4.70
2022-08-28T19:41:37.425Z,5.50
2022-08-28T19:44:39.118Z,8.00
2022-08-28T19:47:40.895Z,4.53
2022-08-28T19:50:44.000Z,4.45
2022-08-28T19:53:45.818Z,5.80
2022-08-28T19:56:47.427Z,4.50
2022-08-28T19:59:48.963Z,5.40
2022-08-28T20:02:54.452Z,6.30
2022-08-28T20:05:56.070Z,5.10
2022-08-28T20:08:58.296Z,4.30
2022-08-28T20:12:00.797Z,3.75
2022-08-28T20:15:03.710Z,5.80
2022-08-28T20:18:06.250Z,3.95
2022-08-28T20:21:11.027Z,5.05
2022-08-28T20:24:17.664Z,4.53
2022-08-28T20:27:19.568Z,4.30
2022-08-28T20:30:21.769Z,5.35
2022-08-28T20:33:23.625Z,5.65
2022-08-28T20:36:26.312Z,5.00
2022-08-28T20:39:28.583Z,4.65
2022-08-28T20:42:31.649Z,6.55
2022-08-28T20:45:33.494Z,4.82
2022-08-28T20:48:35.336Z,7.30
2022-08-28T20:51:55.543Z,5.63
2022-08-28T20:54:58.022Z,3.95
2022-08-28T20:57:59.559Z,5.57
2022-08-28T21:01:01.668Z,5.30
2022-08-28T21:04:03.867Z,6.35
2022-08-28T21:07:05.861Z,6.07
2022-08-28T21:10:08.172Z,4.60
2022-08-28T21:13:11.082Z,5.70
2022-08-28T21:16:12.672Z,4.95
2022-08-28T21:19:16.644Z,4.43
2022-08-28T21:22:18.398Z,5.07
2022-08-28T21:25:26.566Z,7.55
2022-08-28T21:28:28.485Z,8.15
2022-08-28T21:31:30.101Z,6.60
2022-08-28T21:34:31.689Z,6.28
2022-08-28T21:37:33.421Z,8.88
2022-08-28T21:40:37.760Z,4.75
2022-08-28T21:43:40.936Z,5.53
2022-08-28T21:46:42.524Z,6.07
2022-08-28T21:49:48.964Z,6.80
2022-08-28T21:52:50.506Z,4.45
2022-08-28T21:55:54.359Z,4.75
2022-08-28T21:58:56.957Z,4.20
2022-08-28T22:01:58.536Z,5.40
2022-08-28T22:05:00.114Z,5.05
2022-08-28T22:08:01.693Z,5.03
2022-08-28T22:11:03.299Z,3.95
2022-08-28T22:14:04.817Z,3.92
2022-08-28T22:17:11.251Z,4.85
2022-08-28T22:20:13.917Z,4.88
2022-08-28T22:23:17.453Z,3.30
2022-08-28T22:26:20.591Z,3.65
2022-08-28T22:29:22.143Z,4.72
2022-08-28T22:32:25.803Z,3.50
2022-08-28T22:35:28.382Z,5.47
2022-08-28T22:38:30.301Z,5.72
2022-08-28T22:41:32.396Z,5.10
2022-08-28T22:44:34.477Z,3.97
2022-08-28T22:47:36.392Z,3.92
2022-08-28T22:50:37.882Z,4.32
2022-08-28T22:53:41.517Z,6.10
2022-08-28T22:56:43.136Z,5.80
2022-08-28T22:59:44.768Z,6.18
2022-08-28T23:02:47.712Z,4.38
2022-08-28T23:05:49.279Z,4.45
2022-08-28T23:08:50.794Z,4.13
2022-08-28T23:11:52.343Z,5.05
2022-08-28T23:14:53.901Z,3.58
2022-08-28T23:17:55.465Z,3.13
2022-08-28T23:20:57.148Z,4.63
2022-08-28T23:23:59.513Z,3.20
2022-08-28T23:27:19.414Z,3.35
2022-08-28T23:30:23.167Z,3.67
2022-08-28T23:33:24.737Z,3.92
2022-08-28T23:36:26.871Z,3.53
2022-08-28T23:39:28.427Z,5.95
2022-08-28T23:42:29.967Z,3.42
2022-08-28T23:45:31.787Z,3.88
2022-08-28T23:48:33.924Z,4.05
2022-08-28T23:51:36.947Z,6.85
2022-08-28T23:54:38.570Z,3.22
2022-08-28T23:57:40.312Z,3.42
